Time;durP1;ratioP1;P1;durP2;ratioP2;P2;SDS_P1;SDS_P2;PMS_P1;PMS_P2;Temp;Humidity;BMP_temperature;BMP_pressure;BME280_temperature;BME280_humidity;BME280_pressure;Samples;Min_cycle;Max_cycle;Signal;HPM_P1;HPM_P2
2021/08/16 00:00:00;;;;;;;35.05;18.37;;;;;;;20.40;89.36;100943.61;1840431;78;21023;-61
2021/08/16 00:02:29;;;;;;;33.20;17.25;;;;;;;20.40;89.31;100941.77;1840281;78;21062;-61
2021/08/16 00:04:58;;;;;;;36.03;17.92;;;;;;;20.42;89.29;100938.49;1840277;78;21058;-61
2021/08/16 00:07:27;;;;;;;32.80;17.20;;;;;;;20.46;89.25;100941.78;1840194;78;21045;-61
2021/08/16 00:09:56;;;;;;;34.48;16.37;;;;;;;20.48;89.16;100940.33;1840306;78;21095;-61
2021/08/16 00:12:25;;;;;;;36.55;18.30;;;;;;;20.50;89.06;100939.72;1840284;78;21132;-61
2021/08/16 00:14:53;;;;;;;30.32;15.70;;;;;;;20.51;89.01;100936.06;1840324;78;21058;-62
2021/08/16 00:17:22;;;;;;;32.00;15.60;;;;;;;20.52;88.96;100932.42;1840526;78;21090;-61
2021/08/16 00:19:51;;;;;;;31.95;16.32;;;;;;;20.52;88.93;100937.77;1840184;78;21026;-62
2021/08/16 00:22:20;;;;;;;33.75;16.82;;;;;;;20.50;88.89;100931.70;1840330;77;21087;-61
2021/08/16 00:24:49;;;;;;;36.20;16.12;;;;;;;20.49;88.89;100936.67;1840313;78;21019;-61
2021/08/16 00:27:18;;;;;;;34.03;17.12;;;;;;;20.47;88.89;100936.78;1840391;78;21485;-61
2021/08/16 00:29:47;;;;;;;34.50;15.58;;;;;;;20.46;88.96;100942.27;1840232;78;21506;-61
2021/08/16 00:32:16;;;;;;;38.85;17.45;;;;;;;20.40;88.99;100936.42;1840272;78;21039;-62
2021/08/16 00:34:45;;;;;;;33.45;16.12;;;;;;;20.39;89.00;100939.21;1840262;78;21208;-62
2021/08/16 00:37:13;;;;;;;34.80;16.93;;;;;;;20.36;89.01;100937.64;1840270;78;21124;-61
2021/08/16 00:39:42;;;;;;;30.40;16.23;;;;;;;20.35;89.01;100935.92;1840265;78;21097;-62
2021/08/16 00:42:12;;;;;;;31.07;16.42;;;;;;;20.32;89.04;100932.14;1840261;78;21075;-61
2021/08/16 00:44:41;;;;;;;33.85;16.65;;;;;;;20.31;89.01;100926.44;1840400;78;21019;-61
2021/08/16 00:47:10;;;;;;;34.58;15.53;;;;;;;20.31;88.99;100930.45;1840231;78;21078;-61
2021/08/16 00:49:39;;;;;;;30.32;15.03;;;;;;;20.31;88.99;100927.78;1840390;78;21079;-61
2021/08/16 00:52:08;;;;;;;29.45;15.43;;;;;;;20.31;88.98;100925.10;1840378;78;21075;-61
2021/08/16 00:54:37;;;;;;;29.57;15.28;;;;;;;20.30;89.01;100932.74;1840462;78;21513;-61
2021/08/16 00:57:07;;;;;;;30.55;16.15;;;;;;;20.28;89.00;100929.83;1840362;78;21051;-61
2021/08/16 00:59:36;;;;;;;33.48;16.00;;;;;;;20.27;88.97;100930.33;1840277;78;21450;-62
2021/08/16 01:02:04;;;;;;;30.60;15.15;;;;;;;20.25;88.99;100928.23;1840367;78;21611;-61
2021/08/16 01:04:34;;;;;;;32.42;16.75;;;;;;;20.26;88.98;100940.64;1840464;78;21172;-61
2021/08/16 01:07:03;;;;;;;36.08;17.27;;;;;;;20.27;89.02;100933.00;1840354;78;21569;-61
2021/08/16 01:09:32;;;;;;;31.05;15.90;;;;;;;20.28;89.05;100936.02;1840393;78;21106;-61
2021/08/16 01:12:01;;;;;;;28.17;15.60;;;;;;;20.29;89.08;100940.41;1840309;78;21571;-61
2021/08/16 01:14:30;;;;;;;28.95;15.03;;;;;;;20.29;89.07;100943.09;1840485;78;21145;-62
2021/08/16 01:16:59;;;;;;;34.55;17.17;;;;;;;20.31;89.04;100937.13;1840379;78;21150;-61
2021/08/16 01:19:28;;;;;;;31.55;15.13;;;;;;;20.30;89.02;100936.75;1840367;78;21564;-62
2021/08/16 01:21:56;;;;;;;34.18;16.30;;;;;;;20.31;88.98;100943.82;1840366;78;21054;-61
2021/08/16 01:24:25;;;;;;;31.77;16.70;;;;;;;20.30;88.99;100945.27;1840304;78;21058;-63
2021/08/16 01:26:53;;;;;;;30.77;16.15;;;;;;;20.29;88.96;100940.41;1840382;78;21058;-61
2021/08/16 01:29:23;;;;;;;35.20;15.98;;;;;;;20.29;89.02;100943.55;1840382;78;21184;-61
2021/08/16 01:31:52;;;;;;;34.15;16.73;;;;;;;20.28;89.02;100949.89;1840403;78;21529;-61
2021/08/16 01:34:21;;;;;;;31.55;16.23;;;;;;;20.29;89.04;100955.13;1840449;78;21097;-61
2021/08/16 01:36:50;;;;;;;32.95;16.67;;;;;;;20.30;89.01;100950.13;1840353;78;21047;-62
2021/08/16 01:39:18;;;;;;;34.50;15.58;;;;;;;20.31;88.98;100943.82;1840314;78;21125;-62
2021/08/16 01:41:48;;;;;;;33.55;16.40;;;;;;;20.34;88.94;100950.25;1837729;78;21102;-62
2021/08/16 01:44:18;;;;;;;34.40;17.07;;;;;;;20.36;88.88;100951.47;1835683;78;21563;-62
2021/08/16 01:46:47;;;;;;;38.40;17.48;;;;;;;20.36;88.84;100956.36;1835711;78;21079;-61
2021/08/16 01:49:17;;;;;;;35.50;17.98;;;;;;;20.34;88.84;100952.92;1835672;78;21563;-61
2021/08/16 01:51:47;;;;;;;35.80;16.57;;;;;;;20.32;88.87;100958.87;1835562;78;21517;-62
2021/08/16 01:54:17;;;;;;;37.80;17.37;;;;;;;20.30;88.89;100955.47;1835774;78;21051;-61
2021/08/16 01:56:45;;;;;;;32.30;15.85;;;;;;;20.30;88.93;100955.47;1835752;78;21059;-62
2021/08/16 01:59:14;;;;;;;33.50;15.58;;;;;;;20.29;88.94;100949.77;1835607;78;21129;-61
2021/08/16 02:01:43;;;;;;;31.05;15.28;;;;;;;20.29;88.92;100957.80;1835697;78;21168;-62
2021/08/16 02:04:12;;;;;;;30.62;14.45;;;;;;;20.29;88.95;100956.92;1835557;78;21055;-62
2021/08/16 02:06:40;;;;;;;32.38;14.98;;;;;;;20.29;88.97;100956.92;1835638;78;21113;-62
2021/08/16 02:09:09;;;;;;;25.20;13.22;;;;;;;20.28;89.01;100953.90;1835755;78;21051;-62
2021/08/16 02:11:38;;;;;;;27.87;13.88;;;;;;;20.25;89.04;100949.62;1835901;78;21117;-62
2021/08/16 02:14:07;;;;;;;24.27;13.08;;;;;;;20.23;89.02;100955.57;1835684;78;21121;-61
2021/08/16 02:16:35;;;;;;;27.25;14.10;;;;;;;20.22;89.01;100959.23;1835550;78;21071;-62
2021/08/16 02:19:04;;;;;;;20.68;10.75;;;;;;;20.20;89.05;100957.16;1835656;78;21696;-62
2021/08/16 02:21:33;;;;;;;24.77;13.08;;;;;;;20.19;89.07;100962.97;1835715;78;21058;-61
2021/08/16 02:24:01;;;;;;;20.35;11.55;;;;;;;20.19;89.10;100956.78;1835643;78;21114;-61
2021/08/16 02:26:30;;;;;;;23.85;11.15;;;;;;;20.18;89.13;100960.44;1835692;78;21051;-61
2021/08/16 02:28:59;;;;;;;24.00;12.58;;;;;;;20.17;89.13;100965.41;1835679;78;21552;-62
2021/08/16 02:31:27;;;;;;;22.22;11.25;;;;;;;20.17;89.12;100965.41;1835592;78;21094;-62
2021/08/16 02:33:56;;;;;;;22.50;10.95;;;;;;;20.14;89.09;100970.52;1835684;78;21043;-62
2021/08/16 02:36:24;;;;;;;25.23;12.50;;;;;;;20.15;89.12;100971.36;1835650;78;21109;-62
2021/08/16 02:38:53;;;;;;;23.27;10.98;;;;;;;20.15;89.15;100973.53;1835652;78;21071;-62
2021/08/16 02:41:22;;;;;;;24.00;13.20;;;;;;;20.15;89.18;100972.20;1837004;77;21043;-62
2021/08/16 02:43:50;;;;;;;27.85;13.38;;;;;;;20.17;89.12;100975.60;1855893;77;21068;-61
2021/08/16 02:46:19;;;;;;;24.52;11.78;;;;;;;20.17;89.13;100980.11;1855731;77;21453;-61
2021/08/16 02:48:48;;;;;;;22.73;12.40;;;;;;;20.17;89.14;100982.78;1855750;77;21058;-62
2021/08/16 02:51:17;;;;;;;27.05;12.23;;;;;;;20.16;89.17;100982.40;1855707;77;21058;-62
2021/08/16 02:53:45;;;;;;;26.70;13.78;;;;;;;20.16;89.21;100982.40;1855743;77;21058;-62
2021/08/16 02:56:14;;;;;;;22.85;11.88;;;;;;;20.17;89.22;100985.45;1855654;77;21089;-62
2021/08/16 02:58:43;;;;;;;22.42;11.97;;;;;;;20.18;89.22;100989.84;1855845;77;21058;-62
2021/08/16 03:01:11;;;;;;;25.77;12.85;;;;;;;20.21;89.17;100990.93;1855728;77;21078;-62
2021/08/16 03:03:40;;;;;;;24.90;12.63;;;;;;;20.25;89.13;100996.41;1855673;77;21111;-61
2021/08/16 03:06:09;;;;;;;24.67;12.07;;;;;;;20.26;89.10;100996.79;1855837;77;21050;-61
2021/08/16 03:08:38;;;;;;;23.65;13.03;;;;;;;20.28;89.09;100990.84;1855712;77;21120;-62
2021/08/16 03:11:08;;;;;;;23.02;12.35;;;;;;;20.30;89.08;100995.58;1855629;77;21082;-62
2021/08/16 03:13:37;;;;;;;27.15;12.63;;;;;;;20.30;89.04;100997.41;1855768;77;21497;-61
2021/08/16 03:16:05;;;;;;;25.20;12.43;;;;;;;20.30;89.03;100999.59;1855827;77;21489;-61
2021/08/16 03:18:34;;;;;;;23.87;12.60;;;;;;;20.30;89.02;100999.59;1855727;77;21172;-62
2021/08/16 03:21:03;;;;;;;25.55;13.38;;;;;;;20.31;89.00;100999.97;1855854;77;21054;-61
2021/08/16 03:23:32;;;;;;;22.20;12.47;;;;;;;20.32;88.99;100999.48;1855645;77;21165;-61
2021/08/16 03:26:00;;;;;;;30.10;12.95;;;;;;;20.32;89.03;101004.83;1855734;77;21070;-62
2021/08/16 03:28:29;;;;;;;25.25;12.93;;;;;;;20.32;89.04;101008.84;1855723;77;21054;-61
2021/08/16 03:30:58;;;;;;;24.07;12.25;;;;;;;20.33;89.05;101011.41;1855724;77;21078;-61
2021/08/16 03:33:26;;;;;;;25.02;12.55;;;;;;;20.39;89.12;101006.07;1855734;77;21112;-62
2021/08/16 03:35:55;;;;;;;27.13;12.15;;;;;;;20.42;89.18;101008.02;1855632;77;21050;-60
2021/08/16 03:38:24;;;;;;;26.60;12.65;;;;;;;20.46;89.21;101003.80;1855799;77;21046;-61
2021/08/16 03:40:53;;;;;;;24.65;12.68;;;;;;;20.47;89.15;100998.80;1855680;77;21121;-62
2021/08/16 03:43:21;;;;;;;25.62;12.35;;;;;;;20.49;89.08;101003.53;1845470;77;21560;-62
2021/08/16 03:45:50;;;;;;;28.92;13.10;;;;;;;20.48;88.97;100996.00;1838003;78;21055;-62
2021/08/16 03:48:19;;;;;;;27.93;11.75;;;;;;;20.50;88.92;101003.42;1837941;78;21050;-63
2021/08/16 03:50:48;;;;;;;26.62;12.35;;;;;;;20.49;88.87;101004.41;1837965;78;21117;-61
2021/08/16 03:53:16;;;;;;;23.70;12.28;;;;;;;20.50;88.84;101011.94;1838076;78;21039;-61
2021/08/16 03:55:45;;;;;;;22.27;10.23;;;;;;;20.50;88.79;101013.28;1838050;78;21161;-61
2021/08/16 03:58:14;;;;;;;23.75;11.78;;;;;;;20.50;88.72;101005.25;1837940;78;21051;-61
2021/08/16 04:00:43;;;;;;;23.25;13.15;;;;;;;20.50;88.69;101006.59;1837954;78;21113;-61
2021/08/16 04:03:11;;;;;;;24.63;12.55;;;;;;;20.52;88.64;101012.67;1837820;78;21560;-61
2021/08/16 04:05:40;;;;;;;21.00;12.20;;;;;;;20.54;88.59;101016.08;1837986;78;21055;-61
2021/08/16 04:08:09;;;;;;;23.47;11.70;;;;;;;20.56;88.50;101012.80;1837980;78;21489;-61
2021/08/16 04:10:38;;;;;;;21.20;10.32;;;;;;;20.58;88.44;101015.74;1838002;78;21125;-61
2021/08/16 04:13:06;;;;;;;20.88;11.12;;;;;;;20.60;88.36;101019.18;1837968;78;21051;-61
2021/08/16 04:15:35;;;;;;;22.37;11.78;;;;;;;20.63;88.29;101024.77;1837943;78;21089;-61
2021/08/16 04:18:05;;;;;;;24.37;12.13;;;;;;;20.66;88.23;101026.34;1837962;78;21062;-60
2021/08/16 04:20:33;;;;;;;24.47;10.72;;;;;;;20.68;88.14;101027.95;1837994;78;21568;-63
2021/08/16 04:23:02;;;;;;;24.02;11.57;;;;;;;20.72;87.98;101029.41;1838265;78;21051;-61
2021/08/16 04:25:31;;;;;;;25.20;11.45;;;;;;;20.78;87.86;101033.42;1838057;78;21095;-61
2021/08/16 04:27:59;;;;;;;21.70;11.80;;;;;;;20.83;87.76;101037.45;1838001;78;21632;-62
2021/08/16 04:30:28;;;;;;;22.67;11.75;;;;;;;20.91;87.70;101040.02;1838069;78;21067;-61
2021/08/16 04:32:57;;;;;;;22.55;11.83;;;;;;;20.98;87.43;101042.59;1838069;78;21078;-61
2021/08/16 04:35:25;;;;;;;22.30;10.58;;;;;;;21.05;87.33;101041.14;1838061;78;21145;-61
2021/08/16 04:37:54;;;;;;;19.77;10.53;;;;;;;21.13;87.15;101044.05;1838113;78;21107;-61
2021/08/16 04:40:23;;;;;;;22.77;11.03;;;;;;;21.21;86.89;101042.97;1838067;78;21068;-61
2021/08/16 04:42:52;;;;;;;21.40;11.25;;;;;;;21.30;86.72;101041.86;1838189;78;21104;-61
2021/08/16 04:45:21;;;;;;;18.25;10.15;;;;;;;21.39;86.61;101049.17;1840582;77;21575;-61
2021/08/16 04:47:49;;;;;;;22.42;11.38;;;;;;;21.47;86.50;101050.80;1840408;78;21055;-61
2021/08/16 04:50:19;;;;;;;18.87;10.15;;;;;;;21.53;86.40;101059.66;1840432;78;21132;-61
2021/08/16 04:52:48;;;;;;;20.77;10.35;;;;;;;21.59;86.22;101056.98;1840382;77;21071;-61
2021/08/16 04:55:17;;;;;;;22.50;10.72;;;;;;;21.66;86.06;101058.69;1840319;78;21494;-61
2021/08/16 04:57:45;;;;;;;20.20;9.73;;;;;;;21.73;85.74;101055.88;1840528;78;21078;-61
2021/08/16 05:00:16;;;;;;;20.10;10.28;;;;;;;21.80;85.52;101053.06;1840380;78;21114;-61
2021/08/16 05:02:45;;;;;;;18.20;9.75;;;;;;;21.94;85.26;101050.08;1840485;78;21066;-61
2021/08/16 05:05:17;;;;;;;21.48;10.13;;;;;;;22.07;84.80;101046.39;1840378;78;21027;-61
2021/08/16 05:07:50;;;;;;;21.15;9.53;;;;;;;22.15;84.43;101042.58;1840411;78;21043;-61
2021/08/16 05:10:21;;;;;;;19.50;9.13;;;;;;;22.25;83.97;101039.50;1840641;78;21027;-61
2021/08/16 05:12:51;;;;;;;15.45;9.28;;;;;;;22.32;83.61;101043.41;1840523;78;21496;-61
2021/08/16 05:15:21;;;;;;;20.62;9.00;;;;;;;22.46;83.56;101038.70;1840351;78;21059;-61
2021/08/16 05:17:50;;;;;;;19.75;9.30;;;;;;;22.58;83.59;101041.70;1840511;77;21058;-61
2021/08/16 05:20:19;;;;;;;18.52;9.03;;;;;;;22.67;83.37;101042.25;1840306;78;21054;-61
2021/08/16 05:22:49;;;;;;;20.57;9.40;;;;;;;22.84;83.28;101043.98;1840501;78;21546;-61
2021/08/16 05:25:19;;;;;;;16.45;8.65;;;;;;;23.21;83.08;101040.81;1840339;78;21140;-61
2021/08/16 05:27:49;;;;;;;20.92;9.15;;;;;;;23.66;82.59;101043.07;1840389;78;21546;-61
2021/08/16 05:30:17;;;;;;;17.52;9.30;;;;;;;23.81;81.65;101043.09;1840368;78;21513;-61
2021/08/16 05:32:47;;;;;;;16.02;8.25;;;;;;;24.25;80.52;101048.94;1840231;77;21556;-61
2021/08/16 05:35:16;;;;;;;17.02;8.80;;;;;;;24.89;79.24;101043.91;1840375;78;21643;-61
2021/08/16 05:37:45;;;;;;;17.85;9.03;;;;;;;25.45;78.52;101042.66;1840389;78;21086;-61
2021/08/16 05:40:14;;;;;;;18.10;8.75;;;;;;;25.69;77.49;101037.55;1840384;78;21040;-61
2021/08/16 05:42:43;;;;;;;15.78;8.80;;;;;;;25.33;76.12;101025.85;1840314;77;21058;-61
2021/08/16 05:45:12;;;;;;;17.32;8.68;;;;;;;24.99;76.29;101029.93;1838621;78;21157;-61
2021/08/16 05:47:41;;;;;;;18.73;9.03;;;;;;;24.69;76.04;101032.84;1838001;78;21197;-61
2021/08/16 05:50:11;;;;;;;19.55;9.88;;;;;;;24.38;76.03;101037.02;1838008;78;21075;-61
2021/08/16 05:52:39;;;;;;;19.42;10.13;;;;;;;24.10;76.48;101031.49;1838043;78;21047;-61
2021/08/16 05:55:09;;;;;;;17.17;9.30;;;;;;;23.95;76.79;101028.88;1838028;78;21031;-61
2021/08/16 05:57:37;;;;;;;18.98;9.60;;;;;;;23.82;76.89;101036.70;1837957;78;21604;-62
2021/08/16 06:00:07;;;;;;;18.42;10.43;;;;;;;23.77;77.04;101042.95;1837992;78;21113;-61
2021/08/16 06:02:36;;;;;;;23.83;10.85;;;;;;;23.74;77.12;101047.28;1838117;78;21111;-61
2021/08/16 06:05:06;;;;;;;17.80;9.40;;;;;;;23.73;77.15;101049.59;1837993;78;21083;-61
2021/08/16 06:07:35;;;;;;;17.07;9.80;;;;;;;23.72;77.12;101051.95;1838115;78;21051;-61
2021/08/16 06:10:05;;;;;;;30.02;10.53;;;;;;;23.71;77.22;101053.77;1838125;78;21146;-63
2021/08/16 06:12:34;;;;;;;20.12;9.18;;;;;;;23.70;77.03;101059.30;1837985;78;21027;-61
2021/08/16 06:15:03;;;;;;;17.77;9.83;;;;;;;23.72;77.15;101050.61;1838161;78;21055;-61
2021/08/16 06:17:35;;;;;;;16.37;9.73;;;;;;;23.75;77.19;101054.84;1837966;78;21140;-61
2021/08/16 06:20:02;;;;;;;21.23;9.45;;;;;;;23.86;77.14;101055.59;1837976;78;21051;-61
2021/08/16 06:22:32;;;;;;;20.27;11.35;;;;;;;24.05;76.80;101051.23;1838117;78;21068;-61
2021/08/16 06:25:03;;;;;;;21.97;10.60;;;;;;;24.22;76.19;101053.24;1837963;78;21220;-60
2021/08/16 06:27:31;;;;;;;20.10;10.03;;;;;;;24.31;74.94;101050.68;1838016;78;21542;-60
2021/08/16 06:30:00;;;;;;;20.97;10.72;;;;;;;24.38;74.55;101058.55;1838030;78;21059;-60
2021/08/16 06:32:30;;;;;;;17.25;9.18;;;;;;;24.66;74.68;101045.59;1837999;78;21075;-60
2021/08/16 06:35:00;;;;;;;18.67;9.35;;;;;;;25.01;73.49;101048.14;1838034;78;21042;-59
2021/08/16 06:37:29;;;;;;;15.60;9.55;;;;;;;25.70;71.37;101048.70;1837898;78;21082;-60
2021/08/16 06:39:58;;;;;;;19.67;8.43;;;;;;;26.55;69.94;101057.30;1838025;78;21074;-59
2021/08/16 06:42:27;;;;;;;17.77;9.20;;;;;;;27.27;67.67;101057.15;1837996;78;21521;-60
2021/08/16 06:44:56;;;;;;;16.40;8.98;;;;;;;27.85;64.54;101057.35;1837841;78;21086;-60
2021/08/16 06:47:24;;;;;;;14.53;7.47;;;;;;;28.30;64.43;101061.53;1838100;78;21152;-60
2021/08/16 06:49:53;;;;;;;15.20;8.85;;;;;;;28.14;62.56;101068.28;1837909;78;21070;-59
2021/08/16 06:52:22;;;;;;;13.48;7.85;;;;;;;27.72;63.13;101060.53;1837996;78;21154;-59
2021/08/16 06:54:50;;;;;;;16.23;8.25;;;;;;;27.79;62.27;101060.21;1838026;78;21051;-60
2021/08/16 06:57:19;;;;;;;17.45;8.30;;;;;;;27.89;62.49;101069.56;1837989;78;21044;-60
2021/08/16 06:59:47;;;;;;;14.53;7.45;;;;;;;27.95;61.99;101064.03;1838012;78;21015;-59
2021/08/16 07:02:16;;;;;;;14.40;8.23;;;;;;;27.97;61.45;101074.17;1837901;78;21326;-59
2021/08/16 07:04:45;;;;;;;13.68;7.75;;;;;;;27.84;60.71;101071.91;1838101;78;21228;-60
2021/08/16 07:07:14;;;;;;;12.10;7.15;;;;;;;28.13;59.98;101079.62;1837972;78;21108;-60
2021/08/16 07:09:42;;;;;;;17.07;9.50;;;;;;;28.25;59.30;101076.08;1837994;78;21615;-59
2021/08/16 07:12:11;;;;;;;16.17;9.05;;;;;;;27.98;57.89;101054.20;1838002;78;21051;-60
2021/08/16 07:14:40;;;;;;;20.97;8.83;;;;;;;27.51;58.00;101078.55;1837984;78;21067;-59
2021/08/16 07:17:08;;;;;;;13.22;6.85;;;;;;;27.11;59.36;101086.76;1837918;78;21106;-60
2021/08/16 07:19:37;;;;;;;13.98;8.05;;;;;;;27.53;59.87;101082.78;1838067;78;21118;-60
2021/08/16 07:22:06;;;;;;;13.25;6.90;;;;;;;27.50;59.12;101084.47;1837992;78;21079;-59
2021/08/16 07:24:34;;;;;;;10.68;6.85;;;;;;;27.77;58.77;101090.64;1838002;78;21055;-60
2021/08/16 07:27:04;;;;;;;15.03;6.97;;;;;;;28.29;57.53;101093.19;1837945;78;21497;-60
2021/08/16 07:29:32;;;;;;;10.45;5.80;;;;;;;28.82;56.52;101095.58;1837887;78;21079;-60
2021/08/16 07:32:01;;;;;;;9.80;5.47;;;;;;;29.33;55.75;101088.05;1838094;78;21076;-60
2021/08/16 07:34:30;;;;;;;11.05;5.95;;;;;;;29.78;54.43;101093.81;1837991;78;21079;-60
2021/08/16 07:36:59;;;;;;;9.43;5.35;;;;;;;30.13;53.55;101095.65;1837984;78;21153;-60
2021/08/16 07:39:29;;;;;;;14.15;5.17;;;;;;;30.40;52.37;101100.58;1837982;78;21522;-60
2021/08/16 07:41:58;;;;;;;12.03;5.08;;;;;;;30.79;51.61;101104.16;1837887;78;21562;-59
2021/08/16 07:44:27;;;;;;;8.30;4.60;;;;;;;30.62;49.92;101109.39;1838006;78;21055;-60
2021/08/16 07:46:56;;;;;;;8.35;5.15;;;;;;;30.84;50.06;101104.46;1839898;78;21083;-60
2021/08/16 07:49:25;;;;;;;9.05;5.53;;;;;;;30.84;48.96;101120.77;1840308;78;21126;-59
2021/08/16 07:51:54;;;;;;;8.25;4.37;;;;;;;30.54;49.18;101111.67;1840322;78;21219;-60
2021/08/16 07:54:22;;;;;;;8.70;5.00;;;;;;;30.63;48.64;101109.73;1840413;78;21015;-60
2021/08/16 07:56:52;;;;;;;7.83;4.35;;;;;;;30.62;47.69;101103.47;1840503;78;21055;-60
2021/08/16 07:59:22;;;;;;;6.22;4.12;;;;;;;30.23;48.25;101104.42;1840317;77;21485;-60
2021/08/16 08:01:50;;;;;;;6.40;4.33;;;;;;;30.18;47.76;101106.30;1840441;78;21155;-59
2021/08/16 08:04:19;;;;;;;8.30;4.62;;;;;;;29.85;48.26;101086.66;1840313;78;21039;-59
2021/08/16 08:06:48;;;;;;;9.18;3.87;;;;;;;29.68;49.02;101112.14;1840266;78;21055;-59
2021/08/16 08:09:17;;;;;;;8.83;4.60;;;;;;;29.52;48.71;101117.14;1840440;78;21812;-60
2021/08/16 08:11:46;;;;;;;8.30;4.10;;;;;;;29.76;49.03;101093.16;1840295;78;21062;-59
2021/08/16 08:14:14;;;;;;;7.90;3.70;;;;;;;29.99;48.44;101103.55;1840312;78;21095;-59
2021/08/16 08:16:43;;;;;;;6.12;3.45;;;;;;;30.05;47.71;101099.27;1840305;78;21071;-60
2021/08/16 08:19:12;;;;;;;6.78;3.58;;;;;;;30.33;47.33;101100.97;1840398;78;21206;-60
2021/08/16 08:21:41;;;;;;;5.53;3.27;;;;;;;30.44;47.01;101104.30;1840198;78;21145;-60
2021/08/16 08:24:09;;;;;;;6.28;3.72;;;;;;;30.66;46.75;101095.80;1840278;78;21454;-60
2021/08/16 08:26:50;;;;;;;7.47;3.45;;;;;;;31.10;46.32;101100.50;1840485;78;21137;-59
2021/08/16 08:29:19;;;;;;;6.97;4.00;;;;;;;31.32;45.72;101097.36;1840302;78;21055;-60
2021/08/16 08:31:48;;;;;;;9.45;3.47;;;;;;;31.58;45.98;101089.23;1840273;78;21662;-59
2021/08/16 08:34:17;;;;;;;5.75;3.47;;;;;;;31.92;45.49;101096.25;1840228;78;21132;-60
2021/08/16 08:36:45;;;;;;;6.83;4.00;;;;;;;31.84;44.82;101090.09;1840292;78;21501;-60
2021/08/16 08:39:14;;;;;;;5.83;3.85;;;;;;;31.75;45.04;101086.64;1840406;78;21105;-60
2021/08/16 08:41:44;;;;;;;7.67;3.50;;;;;;;31.96;45.40;101093.15;1840319;78;21121;-60
2021/08/16 08:44:15;;;;;;;4.65;3.37;;;;;;;32.14;44.83;101090.87;1840248;78;21042;-60
2021/08/16 08:46:44;;;;;;;7.62;4.37;;;;;;;32.10;44.75;101091.77;1837890;78;21083;-60
2021/08/16 08:49:14;;;;;;;7.12;4.00;;;;;;;32.11;44.06;101095.33;1835652;78;21125;-59
2021/08/16 08:51:44;;;;;;;8.43;2.70;;;;;;;31.83;42.82;101096.56;1835704;78;21552;-60
2021/08/16 08:54:13;;;;;;;5.78;3.30;;;;;;;31.61;43.48;101090.22;1835556;78;21105;-59
2021/08/16 08:56:42;;;;;;;6.70;3.33;;;;;;;31.53;43.23;101094.73;1835665;78;21043;-59
2021/08/16 08:59:12;;;;;;;6.50;3.45;;;;;;;31.62;43.64;101087.84;1835583;78;21113;-60
2021/08/16 09:01:58;;;;;;;5.15;3.60;;;;;;;31.89;43.59;101097.15;1835669;78;21047;-60
2021/08/16 09:04:28;;;;;;;8.53;3.08;;;;;;;32.08;43.15;101096.58;1835691;78;21117;-59
2021/08/16 09:06:59;;;;;;;5.78;3.55;;;;;;;32.02;42.70;101110.07;1835542;78;21096;-60
2021/08/16 09:09:28;;;;;;;5.50;3.40;;;;;;;31.83;42.82;101104.73;1835676;78;21047;-61
2021/08/16 09:11:57;;;;;;;6.85;3.98;;;;;;;31.72;42.86;101103.34;1835801;78;21499;-60
2021/08/16 09:14:25;;;;;;;5.75;3.50;;;;;;;31.83;43.68;101111.02;1835681;78;21141;-60
2021/08/16 09:16:54;;;;;;;7.87;3.58;;;;;;;31.74;43.83;101105.35;1835701;78;21019;-60
2021/08/16 09:19:26;;;;;;;8.83;4.00;;;;;;;31.74;44.30;101101.27;1835805;78;21098;-60
2021/08/16 09:22:06;;;;;;;7.20;3.10;;;;;;;31.48;43.78;101107.22;1835804;78;21142;-60
2021/08/16 09:24:35;;;;;;;4.95;2.90;;;;;;;31.18;43.21;101116.19;1835639;78;21522;-60
2021/08/16 09:27:15;;;;;;;7.78;3.62;;;;;;;30.77;44.09;101111.13;1835762;78;21124;-60
2021/08/16 09:29:50;;;;;;;5.83;3.37;;;;;;;30.52;45.59;101112.38;1835525;78;21635;-60
2021/08/16 09:32:20;;;;;;;4.78;3.10;;;;;;;30.13;46.31;101105.16;1835673;78;21102;-59
2021/08/16 09:34:52;;;;;;;5.65;3.50;;;;;;;30.39;46.19;101115.17;1835629;78;21118;-59
2021/08/16 09:37:25;;;;;;;5.45;2.83;;;;;;;30.49;45.68;101110.00;1835722;78;21078;-59
2021/08/16 09:40:08;;;;;;;6.42;3.37;;;;;;;30.48;44.84;101117.84;1835788;78;21505;-60
2021/08/16 09:42:49;;;;;;;5.90;3.20;;;;;;;30.56;44.69;101108.25;1835686;78;21048;-59
2021/08/16 09:45:29;;;;;;;7.10;3.45;;;;;;;31.00;44.28;101107.55;1835644;78;21134;-60
2021/08/16 09:48:00;;;;;;;8.43;3.70;;;;;;;31.27;43.34;101113.39;1840250;77;21082;-59
2021/08/16 09:50:44;;;;;;;8.38;3.92;;;;;;;31.24;43.21;101101.00;1855772;77;21121;-59
2021/08/16 09:53:21;;;;;;;6.28;3.08;;;;;;;31.51;43.56;101100.05;1855744;77;21178;-60
2021/08/16 09:56:02;;;;;;;6.90;3.00;;;;;;;32.01;43.10;101112.48;1855757;77;21054;-60
2021/08/16 09:58:31;;;;;;;6.72;2.87;;;;;;;32.03;42.08;101096.83;1855771;77;21087;-59
2021/08/16 10:01:00;;;;;;;4.90;3.42;;;;;;;31.70;42.12;101105.41;1855769;77;21047;-60
2021/08/16 10:03:29;;;;;;;8.13;3.60;;;;;;;31.02;43.05;101092.41;1855805;77;21133;-59
2021/08/16 10:05:59;;;;;;;4.50;3.15;;;;;;;30.64;43.70;101101.93;1855677;77;21493;-60
2021/08/16 10:08:29;;;;;;;5.37;2.98;;;;;;;30.65;43.15;101110.40;1855819;77;21047;-60
2021/08/16 10:10:58;;;;;;;8.95;3.45;;;;;;;30.83;43.64;101099.20;1855790;77;21559;-60
2021/08/16 10:13:29;;;;;;;4.90;3.50;;;;;;;30.92;43.64;101104.40;1855766;77;21034;-60
2021/08/16 10:16:03;;;;;;;5.58;3.62;;;;;;;30.85;45.06;101084.39;1855875;77;21119;-60
2021/08/16 10:18:35;;;;;;;7.45;3.65;;;;;;;30.43;45.39;101097.16;1854044;77;21023;-60
2021/08/16 10:21:05;;;;;;;6.67;3.35;;;;;;;30.24;45.22;101087.08;1855677;77;21133;-60
2021/08/16 10:23:34;;;;;;;5.70;2.62;;;;;;;30.36;45.52;101103.82;1855833;77;21044;-60
2021/08/16 10:26:02;;;;;;;5.30;2.80;;;;;;;30.63;45.57;101098.88;1855957;77;21062;-60
2021/08/16 10:28:33;;;;;;;6.92;3.33;;;;;;;30.51;45.37;101105.27;1855736;77;21078;-60
2021/08/16 10:31:04;;;;;;;5.12;2.90;;;;;;;30.47;45.99;101102.06;1855665;77;21042;-60
2021/08/16 10:33:35;;;;;;;4.83;3.10;;;;;;;30.56;45.96;101110.97;1855834;77;21038;-60
2021/08/16 10:36:04;;;;;;;5.08;2.77;;;;;;;30.46;44.92;101110.39;1853153;77;21135;-59
2021/08/16 10:38:33;;;;;;;4.78;3.27;;;;;;;30.19;44.87;101106.66;1855735;77;21124;-59
2021/08/16 10:41:03;;;;;;;4.30;3.00;;;;;;;30.25;44.54;101101.01;1855731;77;21113;-60
2021/08/16 10:43:36;;;;;;;6.92;2.95;;;;;;;30.27;44.18;101098.95;1849876;77;21054;-60
2021/08/16 10:46:06;;;;;;;6.70;3.45;;;;;;;30.14;43.94;101102.27;1849203;77;21015;-60
2021/08/16 10:48:35;;;;;;;6.28;3.83;;;;;;;29.97;45.18;101105.59;1835555;77;21176;-60
2021/08/16 10:51:09;;;;;;;5.83;3.40;;;;;;;29.91;44.70;101083.22;1830809;78;21055;-60
2021/08/16 10:53:52;;;;;;;5.00;2.77;;;;;;;29.93;45.18;101097.45;1830732;78;21079;-60
2021/08/16 10:56:24;;;;;;;4.10;2.87;;;;;;;30.12;44.92;101102.09;1830332;78;21155;-60
2021/08/16 10:58:53;;;;;;;6.58;3.52;;;;;;;30.09;44.75;101094.33;1830977;78;21043;-60
2021/08/16 11:01:35;;;;;;;4.72;3.10;;;;;;;30.03;45.71;101094.02;1830716;78;21497;-60
2021/08/16 11:04:06;;;;;;;5.87;3.70;;;;;;;30.19;45.39;101088.13;1830721;78;21051;-61
2021/08/16 11:06:36;;;;;;;5.85;3.17;;;;;;;30.07;44.82;101085.52;1830985;78;21175;-60
2021/08/16 11:09:06;;;;;;;5.05;3.30;;;;;;;29.87;45.17;101084.61;1830689;78;21027;-60
2021/08/16 11:11:36;;;;;;;4.78;3.10;;;;;;;29.63;45.32;101086.39;1830769;78;21055;-60
2021/08/16 11:14:09;;;;;;;4.05;2.77;;;;;;;29.29;44.72;101084.48;1830906;78;21552;-60
2021/08/16 11:16:54;;;;;;;5.42;2.92;;;;;;;29.08;45.37;101090.77;1830790;78;21051;-60
2021/08/16 11:19:26;;;;;;;6.20;2.87;;;;;;;28.77;45.17;101081.69;1830697;78;21545;-60
2021/08/16 11:22:00;;;;;;;8.37;3.37;;;;;;;28.53;45.48;101090.67;1831098;78;21130;-60
2021/08/16 11:24:35;;;;;;;6.08;4.10;;;;;;;28.40;45.77;101070.83;1830715;78;21053;-60
2021/08/16 11:27:06;;;;;;;6.87;3.30;;;;;;;28.37;46.54;101084.70;1830656;78;21060;-60